To NAV CANADA Home Page Login to a new session Search on AWWS site Feedback and Comments Disclaimer Vers la page française équivalente Tips FAQ What's new on the site To the Forecasts and Observations / NOTAM section To "File a Flight Plan" website Publications and other links Update of the User's profile FIC Telephone Numbers My Weather Data Folder Route Weather Data Regional Weather Data Local Weather Data To the Forecasts and Observations / NOTAM section
Request Generated 03/28/2015 at 12:13:01 UTC . Weather information available at that time is displayed.

METAR/TAF

TORONTO/BILLY BISHOP TORONTO CITY AIRPORT/ON    (show WxCam)

METAR CYTZ 281200Z AUTO 35009G19KT 9SM CLR M09/M18 A3018 RMK SLP224=
METAR CYTZ 281100Z AUTO 35012KT 310V030 9SM CLR M10/M17 A3015 RMK
SLP215=
METAR CYTZ 281000Z AUTO 01008G15KT 320V040 9SM CLR M09/M17 A3013 RMK
SLP207=

TAF CYTZ 280745Z 2808/2908 35010G20KT P6SM OVC050 TEMPO 2808/2811
P6SM -SN
FM281100 36010G20KT P6SM SCT050
FM281500 34013G23KT P6SM SKC
FM290200 33013KT P6SM SKC
BECMG 2905/2907 27006KT
RMK FCST BASED ON AUTO OBS. NXT FCST BY 281400Z=
Your time UTC time
Weather data provided by Environment Canada and NAV CANADA